sensor_id;sensor_type;location;lat;lon;timestamp;temperature;humidity
8778;DHT22;4425;50.872;4.712;2023-02-20T00:01:03;6.60;99.90
8778;DHT22;4425;50.872;4.712;2023-02-20T00:03:30;6.60;99.90
8778;DHT22;4425;50.872;4.712;2023-02-20T00:05:57;6.60;99.90
8778;DHT22;4425;50.872;4.712;2023-02-20T00:08:24;6.60;99.90
8778;DHT22;4425;50.872;4.712;2023-02-20T00:10:53;6.60;99.90
8778;DHT22;4425;50.872;4.712;2023-02-20T00:13:22;6.60;99.90
8778;DHT22;4425;50.872;4.712;2023-02-20T00:15:51;6.60;99.90
8778;DHT22;4425;50.872;4.712;2023-02-20T00:18:19;6.60;99.90
8778;DHT22;4425;50.872;4.712;2023-02-20T00:20:47;6.60;99.90
8778;DHT22;4425;50.872;4.712;2023-02-20T00:23:14;6.60;99.90
8778;DHT22;4425;50.872;4.712;2023-02-20T00:25:41;6.50;99.90
8778;DHT22;4425;50.872;4.712;2023-02-20T00:28:08;6.50;99.90
8778;DHT22;4425;50.872;4.712;2023-02-20T00:30:36;6.50;99.90
8778;DHT22;4425;50.872;4.712;2023-02-20T00:33:03;6.50;99.90
8778;DHT22;4425;50.872;4.712;2023-02-20T00:35:30;6.40;99.90
8778;DHT22;4425;50.872;4.712;2023-02-20T00:37:57;6.40;99.90
8778;DHT22;4425;50.872;4.712;2023-02-20T00:40:24;6.40;99.90
8778;DHT22;4425;50.872;4.712;2023-02-20T00:42:52;6.40;99.90
8778;DHT22;4425;50.872;4.712;2023-02-20T00:45:19;6.30;99.90
8778;DHT22;4425;50.872;4.712;2023-02-20T00:47:48;6.30;99.90
8778;DHT22;4425;50.872;4.712;2023-02-20T00:50:16;6.30;99.90
8778;DHT22;4425;50.872;4.712;2023-02-20T00:52:43;6.20;99.90
8778;DHT22;4425;50.872;4.712;2023-02-20T00:55:10;6.30;99.90
8778;DHT22;4425;50.872;4.712;2023-02-20T00:57:38;6.40;99.90
8778;DHT22;4425;50.872;4.712;2023-02-20T01:00:11;6.30;99.90
8778;DHT22;4425;50.872;4.712;2023-02-20T01:02:38;6.30;99.90
8778;DHT22;4425;50.872;4.712;2023-02-20T01:05:07;6.40;99.90
8778;DHT22;4425;50.872;4.712;2023-02-20T01:07:34;6.40;99.90
8778;DHT22;4425;50.872;4.712;2023-02-20T01:10:01;6.30;99.90
8778;DHT22;4425;50.872;4.712;2023-02-20T01:12:28;6.40;99.90
8778;DHT22;4425;50.872;4.712;2023-02-20T01:14:55;6.50;99.90
8778;DHT22;4425;50.872;4.712;2023-02-20T01:17:21;6.40;99.90
8778;DHT22;4425;50.872;4.712;2023-02-20T01:19:48;6.40;99.90
8778;DHT22;4425;50.872;4.712;2023-02-20T01:22:20;6.40;99.90
8778;DHT22;4425;50.872;4.712;2023-02-20T01:24:47;6.40;99.90
8778;DHT22;4425;50.872;4.712;2023-02-20T01:27:14;6.40;99.90
8778;DHT22;4425;50.872;4.712;2023-02-20T01:29:42;6.40;99.90
8778;DHT22;4425;50.872;4.712;2023-02-20T01:32:10;6.40;99.90
8778;DHT22;4425;50.872;4.712;2023-02-20T01:34:38;6.40;99.90
8778;DHT22;4425;50.872;4.712;2023-02-20T01:37:05;6.40;99.90
8778;DHT22;4425;50.872;4.712;2023-02-20T01:39:34;6.40;99.90
8778;DHT22;4425;50.872;4.712;2023-02-20T01:42:03;6.30;99.90
8778;DHT22;4425;50.872;4.712;2023-02-20T01:44:34;6.40;99.90
8778;DHT22;4425;50.872;4.712;2023-02-20T01:47:05;6.30;99.90
8778;DHT22;4425;50.872;4.712;2023-02-20T01:49:35;6.30;99.90
8778;DHT22;4425;50.872;4.712;2023-02-20T01:52:07;6.30;99.90
8778;DHT22;4425;50.872;4.712;2023-02-20T01:54:38;6.30;99.90
8778;DHT22;4425;50.872;4.712;2023-02-20T01:57:10;6.20;99.90
8778;DHT22;4425;50.872;4.712;2023-02-20T01:59:40;6.30;99.90
8778;DHT22;4425;50.872;4.712;2023-02-20T02:02:08;6.30;99.90
8778;DHT22;4425;50.872;4.712;2023-02-20T02:04:36;6.20;99.90
8778;DHT22;4425;50.872;4.712;2023-02-20T02:07:04;6.20;99.90
8778;DHT22;4425;50.872;4.712;2023-02-20T02:09:38;6.20;99.90
8778;DHT22;4425;50.872;4.712;2023-02-20T02:12:08;6.20;99.90
8778;DHT22;4425;50.872;4.712;2023-02-20T02:14:35;6.20;99.90
8778;DHT22;4425;50.872;4.712;2023-02-20T02:17:14;6.20;99.90
8778;DHT22;4425;50.872;4.712;2023-02-20T02:20:11;6.20;99.90
8778;DHT22;4425;50.872;4.712;2023-02-20T02:23:17;6.20;99.90
8778;DHT22;4425;50.872;4.712;2023-02-20T02:25:54;6.20;99.90
8778;DHT22;4425;50.872;4.712;2023-02-20T02:32:12;6.20;99.90
8778;DHT22;4425;50.872;4.712;2023-02-20T02:35:23;6.20;99.90
8778;DHT22;4425;50.872;4.712;2023-02-20T02:38:02;6.20;99.90
8778;DHT22;4425;50.872;4.712;2023-02-20T02:40:37;6.20;99.90
8778;DHT22;4425;50.872;4.712;2023-02-20T02:43:08;6.10;99.90
8778;DHT22;4425;50.872;4.712;2023-02-20T02:45:43;6.20;99.90
8778;DHT22;4425;50.872;4.712;2023-02-20T02:48:15;6.10;99.90
8778;DHT22;4425;50.872;4.712;2023-02-20T02:50:45;6.20;99.90
8778;DHT22;4425;50.872;4.712;2023-02-20T02:53:14;6.20;99.90
8778;DHT22;4425;50.872;4.712;2023-02-20T02:55:41;6.20;99.90
8778;DHT22;4425;50.872;4.712;2023-02-20T02:58:09;6.30;99.90
8778;DHT22;4425;50.872;4.712;2023-02-20T03:00:39;6.30;99.90
8778;DHT22;4425;50.872;4.712;2023-02-20T03:03:10;6.40;99.90
8778;DHT22;4425;50.872;4.712;2023-02-20T03:05:44;6.30;99.90
8778;DHT22;4425;50.872;4.712;2023-02-20T03:08:21;6.30;99.90
8778;DHT22;4425;50.872;4.712;2023-02-20T03:10:59;6.40;99.90
8778;DHT22;4425;50.872;4.712;2023-02-20T03:13:30;6.40;99.90
8778;DHT22;4425;50.872;4.712;2023-02-20T03:16:21;6.30;99.90
8778;DHT22;4425;50.872;4.712;2023-02-20T03:18:49;6.40;99.90
8778;DHT22;4425;50.872;4.712;2023-02-20T03:21:21;6.40;99.90
8778;DHT22;4425;50.872;4.712;2023-02-20T03:23:57;6.40;99.90
8778;DHT22;4425;50.872;4.712;2023-02-20T03:26:29;6.40;99.90
8778;DHT22;4425;50.872;4.712;2023-02-20T03:29:02;6.40;99.90
8778;DHT22;4425;50.872;4.712;2023-02-20T03:31:32;6.40;99.90
8778;DHT22;4425;50.872;4.712;2023-02-20T03:34:06;6.40;99.90
8778;DHT22;4425;50.872;4.712;2023-02-20T03:36:56;6.40;99.90
8778;DHT22;4425;50.872;4.712;2023-02-20T03:39:48;6.40;99.90
8778;DHT22;4425;50.872;4.712;2023-02-20T03:42:36;6.40;99.90
8778;DHT22;4425;50.872;4.712;2023-02-20T03:45:23;6.40;99.90
8778;DHT22;4425;50.872;4.712;2023-02-20T03:47:59;6.50;99.90
8778;DHT22;4425;50.872;4.712;2023-02-20T03:50:28;6.60;99.90
8778;DHT22;4425;50.872;4.712;2023-02-20T03:52:55;6.50;99.90
8778;DHT22;4425;50.872;4.712;2023-02-20T03:55:23;6.50;99.90
8778;DHT22;4425;50.872;4.712;2023-02-20T03:57:54;6.50;99.90
8778;DHT22;4425;50.872;4.712;2023-02-20T04:00:27;6.50;99.90
8778;DHT22;4425;50.872;4.712;2023-02-20T04:02:58;6.60;99.90
8778;DHT22;4425;50.872;4.712;2023-02-20T04:05:30;6.50;99.90
8778;DHT22;4425;50.872;4.712;2023-02-20T04:08:00;6.50;99.90
8778;DHT22;4425;50.872;4.712;2023-02-20T04:10:34;6.50;99.90
8778;DHT22;4425;50.872;4.712;2023-02-20T04:13:04;6.50;99.90
8778;DHT22;4425;50.872;4.712;2023-02-20T04:15:32;6.50;99.90
8778;DHT22;4425;50.872;4.712;2023-02-20T04:18:04;6.50;99.90
8778;DHT22;4425;50.872;4.712;2023-02-20T04:20:33;6.60;99.90
8778;DHT22;4425;50.872;4.712;2023-02-20T04:23:06;6.60;99.90
8778;DHT22;4425;50.872;4.712;2023-02-20T04:25:39;6.60;99.90
8778;DHT22;4425;50.872;4.712;2023-02-20T04:28:08;6.70;99.90
8778;DHT22;4425;50.872;4.712;2023-02-20T04:30:35;6.70;99.90
8778;DHT22;4425;50.872;4.712;2023-02-20T04:33:03;6.70;99.90
8778;DHT22;4425;50.872;4.712;2023-02-20T04:35:30;6.70;99.90
8778;DHT22;4425;50.872;4.712;2023-02-20T04:37:57;6.80;99.90
8778;DHT22;4425;50.872;4.712;2023-02-20T04:40:24;6.80;99.90
8778;DHT22;4425;50.872;4.712;2023-02-20T04:42:52;6.90;99.90
8778;DHT22;4425;50.872;4.712;2023-02-20T04:45:19;6.90;99.90
8778;DHT22;4425;50.872;4.712;2023-02-20T04:47:46;6.90;99.90
8778;DHT22;4425;50.872;4.712;2023-02-20T04:50:19;7.00;99.90
8778;DHT22;4425;50.872;4.712;2023-02-20T04:52:46;7.00;99.90
8778;DHT22;4425;50.872;4.712;2023-02-20T04:55:13;7.00;99.90
8778;DHT22;4425;50.872;4.712;2023-02-20T04:57:40;7.00;99.90
8778;DHT22;4425;50.872;4.712;2023-02-20T05:00:09;7.10;99.90
8778;DHT22;4425;50.872;4.712;2023-02-20T05:02:37;7.10;99.90
8778;DHT22;4425;50.872;4.712;2023-02-20T05:05:05;7.10;99.90
8778;DHT22;4425;50.872;4.712;2023-02-20T05:07:33;7.10;99.90
8778;DHT22;4425;50.872;4.712;2023-02-20T05:10:01;7.30;99.90
8778;DHT22;4425;50.872;4.712;2023-02-20T05:12:28;7.10;99.90
8778;DHT22;4425;50.872;4.712;2023-02-20T05:14:55;7.10;99.90
8778;DHT22;4425;50.872;4.712;2023-02-20T05:17:23;7.00;99.90
8778;DHT22;4425;50.872;4.712;2023-02-20T05:19:50;7.20;99.90
8778;DHT22;4425;50.872;4.712;2023-02-20T05:22:17;7.20;99.90
8778;DHT22;4425;50.872;4.712;2023-02-20T05:24:44;7.10;99.90
8778;DHT22;4425;50.872;4.712;2023-02-20T05:27:11;7.30;99.90
8778;DHT22;4425;50.872;4.712;2023-02-20T05:29:43;7.10;99.90
8778;DHT22;4425;50.872;4.712;2023-02-20T05:32:10;7.20;99.90
8778;DHT22;4425;50.872;4.712;2023-02-20T05:34:39;7.20;99.90
8778;DHT22;4425;50.872;4.712;2023-02-20T05:37:06;7.20;99.90
8778;DHT22;4425;50.872;4.712;2023-02-20T05:39:32;7.20;99.90
8778;DHT22;4425;50.872;4.712;2023-02-20T05:41:59;7.20;99.90
8778;DHT22;4425;50.872;4.712;2023-02-20T05:44:27;7.30;99.90
8778;DHT22;4425;50.872;4.712;2023-02-20T05:46:53;7.30;99.90
8778;DHT22;4425;50.872;4.712;2023-02-20T05:49:20;7.30;99.90
8778;DHT22;4425;50.872;4.712;2023-02-20T05:51:49;7.30;99.90
8778;DHT22;4425;50.872;4.712;2023-02-20T05:54:16;7.30;99.90
8778;DHT22;4425;50.872;4.712;2023-02-20T05:56:44;7.40;99.90
8778;DHT22;4425;50.872;4.712;2023-02-20T05:59:12;7.40;99.90
8778;DHT22;4425;50.872;4.712;2023-02-20T06:01:39;7.40;99.90
8778;DHT22;4425;50.872;4.712;2023-02-20T06:04:07;7.40;99.90
8778;DHT22;4425;50.872;4.712;2023-02-20T06:06:36;7.40;99.90
8778;DHT22;4425;50.872;4.712;2023-02-20T06:09:08;7.50;99.90
8778;DHT22;4425;50.872;4.712;2023-02-20T06:11:37;7.50;99.90
8778;DHT22;4425;50.872;4.712;2023-02-20T06:14:04;7.60;99.90
8778;DHT22;4425;50.872;4.712;2023-02-20T06:16:32;7.60;99.90
8778;DHT22;4425;50.872;4.712;2023-02-20T06:19:02;7.80;99.90
8778;DHT22;4425;50.872;4.712;2023-02-20T06:21:30;7.60;99.90
8778;DHT22;4425;50.872;4.712;2023-02-20T06:24:00;7.60;99.90
8778;DHT22;4425;50.872;4.712;2023-02-20T06:26:29;7.60;99.90
8778;DHT22;4425;50.872;4.712;2023-02-20T06:28:56;7.60;99.90
8778;DHT22;4425;50.872;4.712;2023-02-20T06:31:25;7.60;99.90
8778;DHT22;4425;50.872;4.712;2023-02-20T06:33:53;7.60;99.90
8778;DHT22;4425;50.872;4.712;2023-02-20T06:36:23;7.80;99.90
8778;DHT22;4425;50.872;4.712;2023-02-20T06:38:50;7.60;99.90
8778;DHT22;4425;50.872;4.712;2023-02-20T06:41:17;7.60;99.90
8778;DHT22;4425;50.872;4.712;2023-02-20T06:43:46;7.60;99.90
8778;DHT22;4425;50.872;4.712;2023-02-20T06:46:13;7.60;99.90
8778;DHT22;4425;50.872;4.712;2023-02-20T06:48:44;7.60;99.90
8778;DHT22;4425;50.872;4.712;2023-02-20T06:51:16;7.70;99.90
8778;DHT22;4425;50.872;4.712;2023-02-20T06:53:46;7.60;99.90
8778;DHT22;4425;50.872;4.712;2023-02-20T06:56:17;7.70;99.90
8778;DHT22;4425;50.872;4.712;2023-02-20T06:58:48;7.70;99.90
8778;DHT22;4425;50.872;4.712;2023-02-20T07:01:15;7.60;99.90
8778;DHT22;4425;50.872;4.712;2023-02-20T07:03:43;7.70;99.90
8778;DHT22;4425;50.872;4.712;2023-02-20T07:06:11;7.70;99.90
8778;DHT22;4425;50.872;4.712;2023-02-20T07:08:38;7.80;99.90
8778;DHT22;4425;50.872;4.712;2023-02-20T07:11:07;7.80;99.90
8778;DHT22;4425;50.872;4.712;2023-02-20T07:13:35;7.70;99.90
8778;DHT22;4425;50.872;4.712;2023-02-20T07:16:05;7.90;99.90
8778;DHT22;4425;50.872;4.712;2023-02-20T07:18:32;7.80;99.90
8778;DHT22;4425;50.872;4.712;2023-02-20T07:21:01;7.80;99.90
8778;DHT22;4425;50.872;4.712;2023-02-20T07:23:28;7.80;99.90
8778;DHT22;4425;50.872;4.712;2023-02-20T07:25:55;7.90;99.90
8778;DHT22;4425;50.872;4.712;2023-02-20T07:28:22;7.80;99.90
8778;DHT22;4425;50.872;4.712;2023-02-20T07:30:49;7.90;99.90
8778;DHT22;4425;50.872;4.712;2023-02-20T07:33:18;7.90;99.90
8778;DHT22;4425;50.872;4.712;2023-02-20T07:35:45;7.90;99.90
8778;DHT22;4425;50.872;4.712;2023-02-20T07:38:13;7.90;99.90
8778;DHT22;4425;50.872;4.712;2023-02-20T07:40:41;7.90;99.90
8778;DHT22;4425;50.872;4.712;2023-02-20T07:43:08;7.90;99.90
8778;DHT22;4425;50.872;4.712;2023-02-20T07:45:36;7.80;99.90
8778;DHT22;4425;50.872;4.712;2023-02-20T07:48:03;7.90;99.90
8778;DHT22;4425;50.872;4.712;2023-02-20T07:50:33;7.90;99.90
8778;DHT22;4425;50.872;4.712;2023-02-20T07:53:03;7.90;99.90
8778;DHT22;4425;50.872;4.712;2023-02-20T07:55:30;8.00;99.90
8778;DHT22;4425;50.872;4.712;2023-02-20T07:57:58;8.00;99.90
8778;DHT22;4425;50.872;4.712;2023-02-20T08:00:26;8.00;99.90
8778;DHT22;4425;50.872;4.712;2023-02-20T08:02:53;8.10;99.90
8778;DHT22;4425;50.872;4.712;2023-02-20T08:05:22;8.20;99.90
8778;DHT22;4425;50.872;4.712;2023-02-20T08:07:52;8.20;99.90
8778;DHT22;4425;50.872;4.712;2023-02-20T08:10:21;8.10;99.90
8778;DHT22;4425;50.872;4.712;2023-02-20T08:12:49;8.10;99.90
8778;DHT22;4425;50.872;4.712;2023-02-20T08:15:17;8.20;99.90
8778;DHT22;4425;50.872;4.712;2023-02-20T08:17:44;8.20;99.90
8778;DHT22;4425;50.872;4.712;2023-02-20T08:20:12;8.20;99.90
8778;DHT22;4425;50.872;4.712;2023-02-20T08:22:40;8.30;99.90
8778;DHT22;4425;50.872;4.712;2023-02-20T08:25:13;8.20;99.90
8778;DHT22;4425;50.872;4.712;2023-02-20T08:27:41;8.20;99.90
8778;DHT22;4425;50.872;4.712;2023-02-20T08:30:11;8.40;99.90
8778;DHT22;4425;50.872;4.712;2023-02-20T08:32:38;8.30;99.90
8778;DHT22;4425;50.872;4.712;2023-02-20T08:35:06;8.30;99.90
8778;DHT22;4425;50.872;4.712;2023-02-20T08:37:33;8.30;99.90
8778;DHT22;4425;50.872;4.712;2023-02-20T08:40:00;8.40;99.90
8778;DHT22;4425;50.872;4.712;2023-02-20T08:42:32;8.50;99.90
8778;DHT22;4425;50.872;4.712;2023-02-20T08:45:03;8.50;99.90
8778;DHT22;4425;50.872;4.712;2023-02-20T08:47:31;8.70;99.90
8778;DHT22;4425;50.872;4.712;2023-02-20T08:49:58;8.70;99.90
8778;DHT22;4425;50.872;4.712;2023-02-20T08:52:25;8.80;99.90
8778;DHT22;4425;50.872;4.712;2023-02-20T08:54:52;8.70;99.90
8778;DHT22;4425;50.872;4.712;2023-02-20T08:57:19;8.80;99.90
8778;DHT22;4425;50.872;4.712;2023-02-20T08:59:48;8.80;99.90
8778;DHT22;4425;50.872;4.712;2023-02-20T09:02:16;8.70;99.90
8778;DHT22;4425;50.872;4.712;2023-02-20T09:04:46;8.70;99.90
8778;DHT22;4425;50.872;4.712;2023-02-20T09:07:13;8.80;99.90
8778;DHT22;4425;50.872;4.712;2023-02-20T09:09:43;8.70;99.90
8778;DHT22;4425;50.872;4.712;2023-02-20T09:12:10;8.70;99.90
8778;DHT22;4425;50.872;4.712;2023-02-20T09:14:38;8.80;99.90
8778;DHT22;4425;50.872;4.712;2023-02-20T09:17:06;8.90;99.90
8778;DHT22;4425;50.872;4.712;2023-02-20T09:19:33;8.80;99.90
8778;DHT22;4425;50.872;4.712;2023-02-20T09:22:02;8.90;99.90
8778;DHT22;4425;50.872;4.712;2023-02-20T09:24:31;8.80;99.90
8778;DHT22;4425;50.872;4.712;2023-02-20T09:26:59;8.80;99.90
8778;DHT22;4425;50.872;4.712;2023-02-20T09:29:27;8.90;99.90
8778;DHT22;4425;50.872;4.712;2023-02-20T09:31:59;8.80;99.90
8778;DHT22;4425;50.872;4.712;2023-02-20T09:34:28;8.90;99.90
8778;DHT22;4425;50.872;4.712;2023-02-20T09:36:55;8.90;99.90
8778;DHT22;4425;50.872;4.712;2023-02-20T09:39:22;8.90;99.90
8778;DHT22;4425;50.872;4.712;2023-02-20T09:42:09;8.80;99.90
8778;DHT22;4425;50.872;4.712;2023-02-20T09:44:48;8.80;99.90
8778;DHT22;4425;50.872;4.712;2023-02-20T09:47:41;8.80;99.90
8778;DHT22;4425;50.872;4.712;2023-02-20T09:50:17;8.90;99.90
8778;DHT22;4425;50.872;4.712;2023-02-20T09:52:57;8.90;99.90
8778;DHT22;4425;50.872;4.712;2023-02-20T09:55:34;8.90;99.90
8778;DHT22;4425;50.872;4.712;2023-02-20T09:58:03;8.90;99.90
8778;DHT22;4425;50.872;4.712;2023-02-20T10:00:32;8.90;99.90
8778;DHT22;4425;50.872;4.712;2023-02-20T10:03:14;8.90;99.90
8778;DHT22;4425;50.872;4.712;2023-02-20T10:05:43;8.90;99.90
8778;DHT22;4425;50.872;4.712;2023-02-20T10:08:16;8.90;99.90
8778;DHT22;4425;50.872;4.712;2023-02-20T10:10:48;9.10;99.90
8778;DHT22;4425;50.872;4.712;2023-02-20T10:13:31;9.00;99.90
8778;DHT22;4425;50.872;4.712;2023-02-20T10:16:15;9.10;99.90
8778;DHT22;4425;50.872;4.712;2023-02-20T10:18:50;9.10;99.90
8778;DHT22;4425;50.872;4.712;2023-02-20T10:21:32;9.20;99.90
8778;DHT22;4425;50.872;4.712;2023-02-20T10:24:08;9.30;99.90
8778;DHT22;4425;50.872;4.712;2023-02-20T10:26:45;9.30;99.90
8778;DHT22;4425;50.872;4.712;2023-02-20T10:29:17;9.30;99.90
8778;DHT22;4425;50.872;4.712;2023-02-20T10:31:51;9.30;99.90
8778;DHT22;4425;50.872;4.712;2023-02-20T10:34:22;9.30;99.90
8778;DHT22;4425;50.872;4.712;2023-02-20T10:36:55;9.30;99.90
8778;DHT22;4425;50.872;4.712;2023-02-20T10:39:28;9.30;99.90
8778;DHT22;4425;50.872;4.712;2023-02-20T10:41:59;9.30;99.90
8778;DHT22;4425;50.872;4.712;2023-02-20T10:44:32;9.30;99.90
8778;DHT22;4425;50.872;4.712;2023-02-20T10:47:05;9.40;99.90
8778;DHT22;4425;50.872;4.712;2023-02-20T10:49:37;9.40;99.90
8778;DHT22;4425;50.872;4.712;2023-02-20T10:52:11;9.40;99.90
8778;DHT22;4425;50.872;4.712;2023-02-20T10:54:44;9.40;99.90
8778;DHT22;4425;50.872;4.712;2023-02-20T10:57:16;9.40;99.90
8778;DHT22;4425;50.872;4.712;2023-02-20T10:59:49;9.50;99.90
8778;DHT22;4425;50.872;4.712;2023-02-20T11:02:22;9.60;99.90
8778;DHT22;4425;50.872;4.712;2023-02-20T11:04:53;9.70;99.90
8778;DHT22;4425;50.872;4.712;2023-02-20T11:07:23;9.60;99.90
8778;DHT22;4425;50.872;4.712;2023-02-20T11:09:51;9.70;99.90
8778;DHT22;4425;50.872;4.712;2023-02-20T11:12:24;9.60;99.90
8778;DHT22;4425;50.872;4.712;2023-02-20T11:14:55;9.70;99.90
8778;DHT22;4425;50.872;4.712;2023-02-20T11:17:24;9.70;99.90
8778;DHT22;4425;50.872;4.712;2023-02-20T11:19:54;9.80;99.90
8778;DHT22;4425;50.872;4.712;2023-02-20T11:22:42;9.90;99.90
8778;DHT22;4425;50.872;4.712;2023-02-20T11:25:16;9.80;99.90
8778;DHT22;4425;50.872;4.712;2023-02-20T11:27:46;9.80;99.90
8778;DHT22;4425;50.872;4.712;2023-02-20T11:30:23;9.70;99.90
8778;DHT22;4425;50.872;4.712;2023-02-20T11:33:00;9.70;99.90
8778;DHT22;4425;50.872;4.712;2023-02-20T11:35:29;9.70;99.90
8778;DHT22;4425;50.872;4.712;2023-02-20T11:38:26;9.70;99.90
8778;DHT22;4425;50.872;4.712;2023-02-20T11:41:22;9.70;99.90
8778;DHT22;4425;50.872;4.712;2023-02-20T11:44:05;9.70;99.90
8778;DHT22;4425;50.872;4.712;2023-02-20T11:46:35;9.70;99.90
8778;DHT22;4425;50.872;4.712;2023-02-20T11:49:05;9.70;99.90
8778;DHT22;4425;50.872;4.712;2023-02-20T11:51:36;9.80;99.90
8778;DHT22;4425;50.872;4.712;2023-02-20T11:54:12;9.80;99.90
8778;DHT22;4425;50.872;4.712;2023-02-20T11:57:15;9.70;99.90
8778;DHT22;4425;50.872;4.712;2023-02-20T11:59:46;9.80;99.90
8778;DHT22;4425;50.872;4.712;2023-02-20T12:02:31;9.70;99.90
8778;DHT22;4425;50.872;4.712;2023-02-20T12:05:06;9.80;99.90
8778;DHT22;4425;50.872;4.712;2023-02-20T12:07:36;9.70;99.90
8778;DHT22;4425;50.872;4.712;2023-02-20T12:10:19;9.60;99.90
8778;DHT22;4425;50.872;4.712;2023-02-20T12:12:49;9.60;99.90
8778;DHT22;4425;50.872;4.712;2023-02-20T12:15:19;9.60;99.90
8778;DHT22;4425;50.872;4.712;2023-02-20T12:18:14;9.70;99.90
8778;DHT22;4425;50.872;4.712;2023-02-20T12:20:47;9.70;99.90
8778;DHT22;4425;50.872;4.712;2023-02-20T12:23:22;9.80;99.90
8778;DHT22;4425;50.872;4.712;2023-02-20T12:26:03;9.70;99.90
8778;DHT22;4425;50.872;4.712;2023-02-20T12:28:38;9.80;99.90
8778;DHT22;4425;50.872;4.712;2023-02-20T12:31:17;9.90;99.90
8778;DHT22;4425;50.872;4.712;2023-02-20T12:33:56;9.90;99.90
8778;DHT22;4425;50.872;4.712;2023-02-20T12:36:36;9.90;99.90
8778;DHT22;4425;50.872;4.712;2023-02-20T12:39:11;10.00;99.90
8778;DHT22;4425;50.872;4.712;2023-02-20T12:41:55;10.00;99.90
8778;DHT22;4425;50.872;4.712;2023-02-20T12:44:37;10.20;99.90
8778;DHT22;4425;50.872;4.712;2023-02-20T12:47:16;10.20;99.90
8778;DHT22;4425;50.872;4.712;2023-02-20T12:49:53;10.20;99.90
8778;DHT22;4425;50.872;4.712;2023-02-20T12:52:48;10.10;99.90
8778;DHT22;4425;50.872;4.712;2023-02-20T12:55:24;10.00;99.90
8778;DHT22;4425;50.872;4.712;2023-02-20T12:58:09;10.10;99.90
8778;DHT22;4425;50.872;4.712;2023-02-20T13:00:43;10.10;99.90
8778;DHT22;4425;50.872;4.712;2023-02-20T13:03:15;10.20;99.90
8778;DHT22;4425;50.872;4.712;2023-02-20T13:05:46;10.10;99.90
8778;DHT22;4425;50.872;4.712;2023-02-20T13:08:17;10.10;99.90
8778;DHT22;4425;50.872;4.712;2023-02-20T13:10:52;10.20;99.90
8778;DHT22;4425;50.872;4.712;2023-02-20T13:13:25;10.30;99.90
8778;DHT22;4425;50.872;4.712;2023-02-20T13:15:59;10.30;99.90
8778;DHT22;4425;50.872;4.712;2023-02-20T13:18:35;10.40;99.90
8778;DHT22;4425;50.872;4.712;2023-02-20T13:21:05;10.40;99.90
8778;DHT22;4425;50.872;4.712;2023-02-20T13:23:35;10.40;99.90
8778;DHT22;4425;50.872;4.712;2023-02-20T13:29:14;10.60;99.90
8778;DHT22;4425;50.872;4.712;2023-02-20T13:31:45;10.70;99.90
8778;DHT22;4425;50.872;4.712;2023-02-20T13:34:27;10.70;99.90
8778;DHT22;4425;50.872;4.712;2023-02-20T13:36:55;10.50;99.90
8778;DHT22;4425;50.872;4.712;2023-02-20T13:39:46;10.60;99.90
8778;DHT22;4425;50.872;4.712;2023-02-20T13:42:30;10.50;99.90
8778;DHT22;4425;50.872;4.712;2023-02-20T13:44:59;10.50;99.90
8778;DHT22;4425;50.872;4.712;2023-02-20T13:47:34;10.50;99.90
8778;DHT22;4425;50.872;4.712;2023-02-20T13:50:28;10.50;99.90
8778;DHT22;4425;50.872;4.712;2023-02-20T13:52:57;10.50;99.90
8778;DHT22;4425;50.872;4.712;2023-02-20T13:55:29;10.40;99.90
8778;DHT22;4425;50.872;4.712;2023-02-20T13:58:03;10.40;99.90
8778;DHT22;4425;50.872;4.712;2023-02-20T14:00:43;10.20;99.90
8778;DHT22;4425;50.872;4.712;2023-02-20T14:03:17;10.30;99.90
8778;DHT22;4425;50.872;4.712;2023-02-20T14:05:45;10.20;99.90
8778;DHT22;4425;50.872;4.712;2023-02-20T14:08:17;10.10;99.90
8778;DHT22;4425;50.872;4.712;2023-02-20T14:10:45;10.10;99.90
8778;DHT22;4425;50.872;4.712;2023-02-20T14:13:17;10.10;99.90
8778;DHT22;4425;50.872;4.712;2023-02-20T14:15:49;10.10;99.90
8778;DHT22;4425;50.872;4.712;2023-02-20T14:18:23;10.10;99.90
8778;DHT22;4425;50.872;4.712;2023-02-20T14:20:55;10.10;99.90
8778;DHT22;4425;50.872;4.712;2023-02-20T14:23:25;10.00;99.90
8778;DHT22;4425;50.872;4.712;2023-02-20T14:25:54;10.20;99.90
8778;DHT22;4425;50.872;4.712;2023-02-20T14:28:23;10.00;99.90
8778;DHT22;4425;50.872;4.712;2023-02-20T14:31:21;10.00;99.90
8778;DHT22;4425;50.872;4.712;2023-02-20T14:33:51;10.10;99.90
8778;DHT22;4425;50.872;4.712;2023-02-20T14:36:49;10.10;99.90
8778;DHT22;4425;50.872;4.712;2023-02-20T14:39:43;10.10;99.90
8778;DHT22;4425;50.872;4.712;2023-02-20T14:42:17;10.20;99.90
8778;DHT22;4425;50.872;4.712;2023-02-20T14:44:47;10.10;99.90
8778;DHT22;4425;50.872;4.712;2023-02-20T14:47:18;10.10;99.90
8778;DHT22;4425;50.872;4.712;2023-02-20T14:49:46;10.10;99.90
8778;DHT22;4425;50.872;4.712;2023-02-20T14:52:19;10.10;99.90
8778;DHT22;4425;50.872;4.712;2023-02-20T14:54:56;10.10;99.90
8778;DHT22;4425;50.872;4.712;2023-02-20T14:57:25;10.10;99.90
8778;DHT22;4425;50.872;4.712;2023-02-20T15:00:07;10.20;99.90
8778;DHT22;4425;50.872;4.712;2023-02-20T15:02:40;10.30;99.90
8778;DHT22;4425;50.872;4.712;2023-02-20T15:05:09;10.20;99.90
8778;DHT22;4425;50.872;4.712;2023-02-20T15:07:38;10.20;99.90
8778;DHT22;4425;50.872;4.712;2023-02-20T15:10:28;10.20;99.90
8778;DHT22;4425;50.872;4.712;2023-02-20T15:13:00;10.20;99.90
8778;DHT22;4425;50.872;4.712;2023-02-20T15:15:34;10.10;99.90
8778;DHT22;4425;50.872;4.712;2023-02-20T15:18:07;10.10;99.90
8778;DHT22;4425;50.872;4.712;2023-02-20T15:20:39;10.10;99.90
8778;DHT22;4425;50.872;4.712;2023-02-20T15:23:08;10.10;99.90
8778;DHT22;4425;50.872;4.712;2023-02-20T15:25:36;10.10;99.90
8778;DHT22;4425;50.872;4.712;2023-02-20T15:28:12;10.10;99.90
8778;DHT22;4425;50.872;4.712;2023-02-20T15:31:14;10.10;99.90
8778;DHT22;4425;50.872;4.712;2023-02-20T15:33:50;10.00;99.90
8778;DHT22;4425;50.872;4.712;2023-02-20T15:36:20;10.00;99.90
8778;DHT22;4425;50.872;4.712;2023-02-20T15:38:51;10.00;99.90
8778;DHT22;4425;50.872;4.712;2023-02-20T15:41:18;10.00;99.90
8778;DHT22;4425;50.872;4.712;2023-02-20T15:43:46;10.00;99.90
8778;DHT22;4425;50.872;4.712;2023-02-20T15:46:13;9.90;99.90
8778;DHT22;4425;50.872;4.712;2023-02-20T15:48:44;10.00;99.90
8778;DHT22;4425;50.872;4.712;2023-02-20T15:51:18;10.00;99.90
8778;DHT22;4425;50.872;4.712;2023-02-20T15:53:47;10.00;99.90
8778;DHT22;4425;50.872;4.712;2023-02-20T15:56:16;10.00;99.90
8778;DHT22;4425;50.872;4.712;2023-02-20T15:58:46;9.90;99.90
8778;DHT22;4425;50.872;4.712;2023-02-20T16:01:14;9.90;99.90
8778;DHT22;4425;50.872;4.712;2023-02-20T16:03:41;9.90;99.90
8778;DHT22;4425;50.872;4.712;2023-02-20T16:06:11;9.90;99.90
8778;DHT22;4425;50.872;4.712;2023-02-20T16:08:42;9.90;99.90
8778;DHT22;4425;50.872;4.712;2023-02-20T16:11:11;9.90;99.90
8778;DHT22;4425;50.872;4.712;2023-02-20T16:13:39;9.90;99.90
8778;DHT22;4425;50.872;4.712;2023-02-20T16:16:14;9.80;99.90
8778;DHT22;4425;50.872;4.712;2023-02-20T16:18:43;9.70;99.90
8778;DHT22;4425;50.872;4.712;2023-02-20T16:21:17;9.70;99.90
8778;DHT22;4425;50.872;4.712;2023-02-20T16:23:47;9.80;99.90
8778;DHT22;4425;50.872;4.712;2023-02-20T16:26:16;9.80;99.90
8778;DHT22;4425;50.872;4.712;2023-02-20T16:28:44;9.80;99.90
8778;DHT22;4425;50.872;4.712;2023-02-20T16:31:12;9.80;99.90
8778;DHT22;4425;50.872;4.712;2023-02-20T16:33:40;9.70;99.90
8778;DHT22;4425;50.872;4.712;2023-02-20T16:36:07;9.70;99.90
8778;DHT22;4425;50.872;4.712;2023-02-20T16:38:35;9.80;99.90
8778;DHT22;4425;50.872;4.712;2023-02-20T16:41:03;9.70;99.90
8778;DHT22;4425;50.872;4.712;2023-02-20T16:43:31;9.80;99.90
8778;DHT22;4425;50.872;4.712;2023-02-20T16:45:58;9.70;99.90
8778;DHT22;4425;50.872;4.712;2023-02-20T16:48:27;9.70;99.90
8778;DHT22;4425;50.872;4.712;2023-02-20T16:50:54;9.70;99.90